createdAt,value
2018-09-11T00:02:26.180Z,100354.86
2018-09-11T00:04:54.872Z,100342.44
2018-09-11T00:07:23.468Z,100346.17
2018-09-11T00:09:52.102Z,100348.88
2018-09-11T00:12:20.719Z,100354.61
2018-09-11T00:14:49.336Z,100354.45
2018-09-11T00:17:18.124Z,100348.48
2018-09-11T00:19:46.736Z,100347.50
2018-09-11T00:22:15.412Z,100353.19
2018-09-11T00:24:43.995Z,100338.74
2018-09-11T00:27:12.697Z,100342.50
2018-09-11T00:29:41.305Z,100348.77
2018-09-11T00:32:09.908Z,100341.73
2018-09-11T00:34:38.820Z,100340.05
2018-09-11T00:37:07.771Z,100339.23
2018-09-11T00:39:36.389Z,100344.02
2018-09-11T00:42:05.024Z,100348.08
2018-09-11T00:44:33.616Z,100341.86
2018-09-11T00:47:02.520Z,100336.41
2018-09-11T00:49:31.144Z,100332.36
2018-09-11T00:51:59.831Z,100331.66
2018-09-11T00:54:28.670Z,100329.82
2018-09-11T00:56:57.261Z,100333.45
2018-09-11T00:59:25.888Z,100330.55
2018-09-11T01:01:54.500Z,100331.90
2018-09-11T01:04:23.132Z,100326.21
2018-09-11T01:06:51.753Z,100329.98
2018-09-11T01:09:20.411Z,100330.75
2018-09-11T01:11:49.051Z,100334.80
2018-09-11T01:14:17.641Z,100334.52
2018-09-11T01:16:46.384Z,100327.98
2018-09-11T01:19:15.111Z,100323.93
2018-09-11T01:21:43.749Z,100322.45
2018-09-11T01:24:12.557Z,100324.67
2018-09-11T01:26:41.642Z,100322.94
2018-09-11T01:29:10.692Z,100327.41
2018-09-11T01:31:39.286Z,100329.83
2018-09-11T01:34:08.552Z,100336.22
2018-09-11T01:36:37.788Z,100347.73
2018-09-11T01:39:08.837Z,100340.41
2018-09-11T01:41:38.141Z,100342.45
2018-09-11T01:44:07.036Z,100328.63
2018-09-11T01:46:35.900Z,100328.52
2018-09-11T01:49:04.721Z,100321.34
2018-09-11T01:51:33.613Z,100316.72
2018-09-11T01:54:02.284Z,100317.14
2018-09-11T01:56:30.896Z,100315.99
2018-09-11T01:59:00.076Z,100323.41
2018-09-11T02:01:28.668Z,100329.26
2018-09-11T02:03:57.289Z,100323.20
2018-09-11T02:06:28.021Z,100320.39
2018-09-11T02:08:57.102Z,100317.94
2018-09-11T02:11:25.696Z,100317.98
2018-09-11T02:13:54.284Z,100311.83
2018-09-11T02:16:23.018Z,100315.30
2018-09-11T02:18:51.797Z,100312.31
2018-09-11T02:21:20.396Z,100305.85
2018-09-11T02:23:49.015Z,100302.38
2018-09-11T02:26:17.634Z,100301.59
2018-09-11T02:28:46.268Z,100303.73
2018-09-11T02:31:14.865Z,100303.55
2018-09-11T02:33:43.480Z,100302.05
2018-09-11T02:36:12.077Z,100295.73
2018-09-11T02:38:40.674Z,100295.48
2018-09-11T02:41:09.298Z,100297.13
2018-09-11T02:43:37.892Z,100298.52
2018-09-11T02:46:06.501Z,100296.84
2018-09-11T02:48:35.080Z,100290.30
2018-09-11T02:51:03.680Z,100293.03
2018-09-11T02:53:32.366Z,100292.43
2018-09-11T02:56:00.948Z,100302.06
2018-09-11T02:58:29.556Z,100306.47
2018-09-11T03:00:58.196Z,100305.98
2018-09-11T03:03:26.768Z,100297.66
2018-09-11T03:05:55.845Z,100302.34
2018-09-11T03:08:24.445Z,100302.84
2018-09-11T03:10:53.072Z,100303.38
2018-09-11T03:13:21.664Z,100301.06
2018-09-11T03:15:50.243Z,100292.64
2018-09-11T03:18:18.868Z,100290.41
2018-09-11T03:20:47.450Z,100279.59
2018-09-11T03:23:16.084Z,100282.97
2018-09-11T03:25:44.688Z,100284.54
2018-09-11T03:28:13.268Z,100279.53
2018-09-11T03:30:41.915Z,100284.82
2018-09-11T03:33:10.508Z,100287.59
2018-09-11T03:35:39.085Z,100287.34
2018-09-11T03:38:07.710Z,100290.33
2018-09-11T03:40:36.352Z,100283.82
2018-09-11T03:43:05.079Z,100293.48
2018-09-11T03:45:33.786Z,100293.08
2018-09-11T03:48:02.396Z,100290.55
2018-09-11T03:50:31.012Z,100293.04
2018-09-11T03:52:59.605Z,100292.88
2018-09-11T03:55:28.219Z,100300.77
2018-09-11T03:57:56.830Z,100301.58
2018-09-11T04:00:25.519Z,100317.53
2018-09-11T04:02:54.129Z,100316.11
2018-09-11T04:05:23.196Z,100321.14
2018-09-11T04:07:51.969Z,100323.42
2018-09-11T04:10:20.551Z,100333.17
2018-09-11T04:12:49.124Z,100345.69
2018-09-11T04:15:17.705Z,100356.42
2018-09-11T04:17:46.292Z,100366.98
2018-09-11T04:20:14.938Z,100370.97
2018-09-11T04:22:43.561Z,100388.95
2018-09-11T04:25:12.189Z,100392.54
2018-09-11T04:27:40.800Z,100396.84
2018-09-11T04:30:09.695Z,100407.84
2018-09-11T04:32:38.271Z,100415.30
2018-09-11T04:35:07.312Z,100410.59
2018-09-11T04:37:36.004Z,100428.17
2018-09-11T04:40:04.733Z,100427.97
2018-09-11T04:42:33.380Z,100433.55
2018-09-11T04:45:01.976Z,100435.20
2018-09-11T04:47:30.561Z,100426.00
2018-09-11T04:49:59.190Z,100434.48
2018-09-11T04:52:27.935Z,100430.48
2018-09-11T04:54:56.572Z,100437.44
2018-09-11T04:57:25.172Z,100436.58
2018-09-11T04:59:53.755Z,100437.68
2018-09-11T05:02:22.448Z,100435.80
2018-09-11T05:04:51.045Z,100438.69
2018-09-11T05:07:19.670Z,100446.27
2018-09-11T05:09:48.275Z,100439.60
2018-09-11T05:12:16.871Z,100443.92
2018-09-11T05:14:45.490Z,100446.17
2018-09-11T05:17:14.118Z,100443.05
2018-09-11T05:19:42.700Z,100444.16
2018-09-11T05:22:11.303Z,100448.63
2018-09-11T05:24:39.996Z,100447.44
2018-09-11T05:27:08.714Z,100444.65
2018-09-11T05:29:37.379Z,100452.78
2018-09-11T05:32:06.044Z,100449.84
2018-09-11T05:34:34.684Z,100451.52
2018-09-11T05:37:03.282Z,100445.45
2018-09-11T05:39:31.912Z,100445.20
2018-09-11T05:42:00.529Z,100452.01
2018-09-11T05:44:29.162Z,100450.78
2018-09-11T05:46:57.770Z,100445.12
2018-09-11T05:49:26.362Z,100448.97
2018-09-11T05:51:54.991Z,100449.47
2018-09-11T05:54:23.659Z,100447.25
2018-09-11T05:56:52.262Z,100457.00
2018-09-11T05:59:20.841Z,100457.13
2018-09-11T06:01:49.688Z,100458.31
2018-09-11T06:04:18.356Z,100454.75
2018-09-11T06:06:46.957Z,100463.31
2018-09-11T06:09:15.540Z,100456.64
2018-09-11T06:11:44.154Z,100459.91
2018-09-11T06:14:12.752Z,100458.72
2018-09-11T06:16:41.491Z,100459.54
2018-09-11T06:19:10.107Z,100453.91
2018-09-11T06:21:38.688Z,100458.95
2018-09-11T06:24:07.329Z,100453.39
2018-09-11T06:26:35.937Z,100461.00
2018-09-11T06:29:04.623Z,100467.63
2018-09-11T06:31:33.375Z,100471.19
2018-09-11T06:34:02.003Z,100467.89
2018-09-11T06:36:30.594Z,100474.02
2018-09-11T06:38:59.193Z,100474.45
2018-09-11T06:41:27.828Z,100479.96
2018-09-11T06:43:56.778Z,100490.14
2018-09-11T06:46:25.687Z,100491.78
2018-09-11T06:48:54.336Z,100511.15
2018-09-11T06:51:22.949Z,100506.95
2018-09-11T06:53:51.603Z,100495.72
2018-09-11T06:56:20.232Z,100503.22
2018-09-11T06:58:48.891Z,100519.19
2018-09-11T07:01:17.697Z,100518.28
2018-09-11T07:03:46.308Z,100524.77
2018-09-11T07:06:15.217Z,100526.55
2018-09-11T07:08:43.820Z,100528.42
2018-09-11T07:11:12.510Z,100529.77
2018-09-11T07:13:41.196Z,100528.41
2018-09-11T07:16:09.814Z,100522.41
2018-09-11T07:18:38.444Z,100522.55
2018-09-11T07:21:07.065Z,100521.63
2018-09-11T07:23:35.671Z,100518.05
2018-09-11T07:26:04.330Z,100518.91
2018-09-11T07:28:33.066Z,100522.09
2018-09-11T07:31:01.744Z,100520.48
2018-09-11T07:33:30.335Z,100520.92
2018-09-11T07:35:58.965Z,100519.36
2018-09-11T07:38:27.710Z,100519.09
2018-09-11T07:40:56.344Z,100529.28
2018-09-11T07:43:24.952Z,100529.98
2018-09-11T07:45:53.585Z,100527.91
2018-09-11T07:48:22.360Z,100532.11
2018-09-11T07:50:51.544Z,100523.78
2018-09-11T07:53:20.729Z,100516.80
2018-09-11T07:55:50.204Z,100518.48
2018-09-11T07:58:19.673Z,100527.76
2018-09-11T08:00:49.438Z,100527.37
2018-09-11T08:03:18.646Z,100520.92
2018-09-11T08:05:47.831Z,100519.63
2018-09-11T08:08:17.027Z,100516.84
2018-09-11T08:10:46.496Z,100523.10
2018-09-11T08:13:15.782Z,100525.46
2018-09-11T08:15:45.121Z,100533.55
2018-09-11T08:18:14.308Z,100534.30
2018-09-11T08:20:43.514Z,100542.45
2018-09-11T08:23:12.712Z,100532.55
2018-09-11T08:25:41.962Z,100535.44
2018-09-11T08:28:11.231Z,100521.36
2018-09-11T08:30:40.483Z,100517.60
2018-09-11T08:33:09.693Z,100520.89
2018-09-11T08:35:38.896Z,100513.94
2018-09-11T08:38:08.204Z,100522.57
2018-09-11T08:40:37.395Z,100535.41
2018-09-11T08:43:06.589Z,100541.59
2018-09-11T08:45:35.801Z,100543.27
2018-09-11T08:48:05.036Z,100539.75
2018-09-11T08:50:34.274Z,100536.22
2018-09-11T08:53:03.457Z,100536.83
2018-09-11T08:55:32.684Z,100543.52
2018-09-11T08:58:01.982Z,100530.55
2018-09-11T09:00:31.281Z,100540.52
2018-09-11T09:03:00.505Z,100532.33
2018-09-11T09:05:29.733Z,100531.47
2018-09-11T09:07:58.924Z,100524.05
2018-09-11T09:10:28.106Z,100521.66
2018-09-11T09:12:57.352Z,100519.09
2018-09-11T09:15:26.626Z,100521.83
2018-09-11T09:17:56.050Z,100514.70
2018-09-11T09:20:25.273Z,100518.85
2018-09-11T09:22:54.522Z,100521.66
2018-09-11T09:25:23.726Z,100520.86
2018-09-11T09:27:52.946Z,100516.59
2018-09-11T09:30:22.124Z,100518.77
2018-09-11T09:32:51.326Z,100514.28
2018-09-11T09:35:20.537Z,100513.20
2018-09-11T09:37:49.771Z,100505.34
2018-09-11T09:40:19.039Z,100509.61
2018-09-11T09:42:48.305Z,100500.61
2018-09-11T09:45:17.526Z,100504.03
2018-09-11T09:47:46.890Z,100500.80
2018-09-11T09:50:16.081Z,100507.55
2018-09-11T09:52:45.340Z,100507.69
2018-09-11T09:55:14.564Z,100512.11
2018-09-11T09:57:43.800Z,100508.11
2018-09-11T10:00:15.563Z,100505.31
2018-09-11T10:02:44.756Z,100505.73
2018-09-11T10:05:13.921Z,100498.58
2018-09-11T10:07:44.833Z,100506.02
2018-09-11T10:10:14.069Z,100496.00
2018-09-11T10:12:43.237Z,100495.11
2018-09-11T10:15:12.467Z,100493.47
2018-09-11T10:17:41.739Z,100487.38
2018-09-11T10:20:11.107Z,100487.22
2018-09-11T10:22:40.409Z,100494.46
2018-09-11T10:25:09.937Z,100492.31
2018-09-11T10:27:39.166Z,100493.93
2018-09-11T10:30:08.921Z,100491.58
2018-09-11T10:32:41.040Z,100489.27
2018-09-11T10:35:10.281Z,100484.71
2018-09-11T10:37:39.487Z,100482.27
2018-09-11T10:40:08.708Z,100479.83
2018-09-11T10:42:37.921Z,100479.05
2018-09-11T10:45:07.223Z,100485.11
2018-09-11T10:47:36.596Z,100480.24
2018-09-11T10:50:05.858Z,100486.16
2018-09-11T10:52:35.044Z,100478.92
2018-09-11T10:55:04.562Z,100476.98
2018-09-11T10:57:34.179Z,100471.80
2018-09-11T11:00:03.648Z,100467.33
2018-09-11T11:02:32.910Z,100470.77
2018-09-11T11:05:04.767Z,100457.06
2018-09-11T11:07:34.134Z,100462.05
2018-09-11T11:10:04.139Z,100459.99
2018-09-11T11:12:33.547Z,100461.02
2018-09-11T11:15:03.034Z,100464.37
2018-09-11T11:17:32.502Z,100467.89
2018-09-11T11:20:01.890Z,100457.22
2018-09-11T11:22:31.279Z,100457.20
2018-09-11T11:25:00.636Z,100457.13
2018-09-11T11:27:30.001Z,100460.06
2018-09-11T11:29:59.290Z,100468.95
2018-09-11T11:32:29.172Z,100460.20
2018-09-11T11:34:58.493Z,100455.26
2018-09-11T11:37:30.656Z,100455.69
2018-09-11T11:39:59.945Z,100457.19
2018-09-11T11:42:29.436Z,100452.89
2018-09-11T11:44:58.913Z,100449.11
2018-09-11T11:47:28.294Z,100446.05
2018-09-11T11:49:57.579Z,100447.41
2018-09-11T11:52:26.868Z,100449.98
2018-09-11T11:54:56.167Z,100447.31
2018-09-11T11:57:25.681Z,100442.45
2018-09-11T11:59:54.987Z,100439.28
2018-09-11T12:02:24.366Z,100440.22
2018-09-11T12:04:54.343Z,100427.58
2018-09-11T12:07:23.647Z,100431.24
2018-09-11T12:09:53.019Z,100425.14
2018-09-11T12:12:22.377Z,100425.62
2018-09-11T12:14:51.932Z,100430.36
2018-09-11T12:17:21.196Z,100433.64
2018-09-11T12:19:50.502Z,100427.60
2018-09-11T12:22:19.798Z,100430.17
2018-09-11T12:24:49.180Z,100432.82
2018-09-11T12:27:18.484Z,100417.92
2018-09-11T12:29:47.837Z,100416.89
2018-09-11T12:32:17.163Z,100422.01
2018-09-11T12:34:46.478Z,100417.06
2018-09-11T12:37:16.999Z,100409.18
2018-09-11T12:39:46.326Z,100410.56
2018-09-11T12:42:15.600Z,100406.92
2018-09-11T12:44:44.871Z,100405.42
2018-09-11T12:47:14.772Z,100405.42
2018-09-11T12:49:44.072Z,100402.25
2018-09-11T12:52:13.356Z,100397.68
2018-09-11T12:54:42.645Z,100400.89
2018-09-11T12:57:11.973Z,100399.19
2018-09-11T12:59:41.344Z,100409.44
2018-09-11T13:02:10.986Z,100400.91
2018-09-11T13:04:40.328Z,100396.36
2018-09-11T13:07:09.600Z,100387.72
2018-09-11T13:09:40.305Z,100383.20
2018-09-11T13:12:09.637Z,100377.95
2018-09-11T13:14:38.867Z,100380.23
2018-09-11T13:17:08.196Z,100375.65
2018-09-11T13:19:37.548Z,100361.86
2018-09-11T13:22:06.841Z,100371.65
2018-09-11T13:24:36.200Z,100367.28
2018-09-11T13:27:05.447Z,100374.77
2018-09-11T13:29:34.624Z,100377.33
2018-09-11T13:32:03.864Z,100362.45
2018-09-11T13:34:33.088Z,100359.56
2018-09-11T13:37:02.325Z,100358.50
2018-09-11T13:39:31.528Z,100353.69
2018-09-11T13:42:00.765Z,100354.03
2018-09-11T13:44:30.001Z,100358.37
2018-09-11T13:46:59.312Z,100363.86
2018-09-11T13:49:28.775Z,100359.77
2018-09-11T13:51:57.981Z,100356.72
2018-09-11T13:54:27.235Z,100361.02
2018-09-11T13:56:56.444Z,100364.00
2018-09-11T13:59:25.909Z,100364.36
2018-09-11T14:01:55.857Z,100366.37
2018-09-11T14:04:25.094Z,100363.64
2018-09-11T14:06:54.336Z,100364.62
2018-09-11T14:09:23.531Z,100364.11
2018-09-11T14:11:52.725Z,100368.81
2018-09-11T14:14:21.964Z,100363.22
2018-09-11T14:16:51.178Z,100361.45
2018-09-11T14:19:20.536Z,100356.13
2018-09-11T14:21:50.187Z,100357.05
2018-09-11T14:24:19.439Z,100355.53
2018-09-11T14:26:48.776Z,100356.72
2018-09-11T14:29:19.140Z,100357.38
2018-09-11T14:31:48.507Z,100361.73
2018-09-11T14:34:17.759Z,100361.73
2018-09-11T14:36:48.196Z,100364.30
2018-09-11T14:39:17.469Z,100366.32
2018-09-11T14:41:46.716Z,100362.08
2018-09-11T14:44:15.911Z,100366.65
2018-09-11T14:46:45.244Z,100356.41
2018-09-11T14:49:14.591Z,100351.60
2018-09-11T14:51:43.889Z,100346.29
2018-09-11T14:54:13.096Z,100345.81
2018-09-11T14:56:42.573Z,100341.50
2018-09-11T14:59:11.855Z,100341.20
2018-09-11T15:01:41.246Z,100336.94
2018-09-11T15:04:11.263Z,100344.19
2018-09-11T15:06:40.670Z,100337.59
2018-09-11T15:09:10.478Z,100332.36
2018-09-11T15:11:40.353Z,100329.96
2018-09-11T15:14:09.879Z,100330.16
2018-09-11T15:16:39.149Z,100334.17
2018-09-11T15:19:08.412Z,100331.21
2018-09-11T15:21:39.433Z,100333.14
2018-09-11T15:24:08.997Z,100327.38
2018-09-11T15:26:38.213Z,100331.20
2018-09-11T15:29:07.495Z,100324.63
2018-09-11T15:31:37.026Z,100329.91
2018-09-11T15:34:06.425Z,100327.48
2018-09-11T15:36:35.621Z,100330.11
2018-09-11T15:39:05.510Z,100330.23
2018-09-11T15:41:36.339Z,100325.75
2018-09-11T15:44:05.702Z,100329.13
2018-09-11T15:46:35.104Z,100324.52
2018-09-11T15:49:04.328Z,100326.10
2018-09-11T15:51:33.520Z,100322.23
2018-09-11T15:54:02.762Z,100326.66
2018-09-11T15:56:31.966Z,100321.55
2018-09-11T15:59:01.162Z,100324.24
2018-09-11T16:01:30.337Z,100320.19
2018-09-11T16:03:59.549Z,100321.36
2018-09-11T16:06:28.771Z,100314.05
2018-09-11T16:08:57.965Z,100316.36
2018-09-11T16:11:27.189Z,100315.70
2018-09-11T16:13:57.328Z,100317.96
2018-09-11T16:16:26.606Z,100321.05
2018-09-11T16:18:55.852Z,100325.54
2018-09-11T16:21:25.068Z,100324.78
2018-09-11T16:23:54.304Z,100320.58
2018-09-11T16:26:23.518Z,100322.34
2018-09-11T16:28:52.758Z,100324.16
2018-09-11T16:31:21.960Z,100315.08
2018-09-11T16:33:51.151Z,100319.98
2018-09-11T16:36:20.328Z,100309.02
2018-09-11T16:38:49.497Z,100305.06
2018-09-11T16:41:18.720Z,100300.25
2018-09-11T16:43:47.929Z,100303.62
2018-09-11T16:46:17.120Z,100297.13
2018-09-11T16:48:46.381Z,100297.79
2018-09-11T16:51:15.585Z,100292.20
2018-09-11T16:53:44.822Z,100298.05
2018-09-11T16:56:14.037Z,100294.04
2018-09-11T16:58:43.248Z,100291.06
2018-09-11T17:01:12.447Z,100292.23
2018-09-11T17:03:41.663Z,100295.00
2018-09-11T17:06:11.324Z,100290.04
2018-09-11T17:08:41.539Z,100297.73
2018-09-11T17:11:11.013Z,100300.77
2018-09-11T17:13:40.224Z,100296.16
2018-09-11T17:16:09.798Z,100302.96
2018-09-11T17:18:39.190Z,100301.90
2018-09-11T17:21:08.435Z,100302.46
2018-09-11T17:23:37.639Z,100301.66
2018-09-11T17:26:06.867Z,100301.64
2018-09-11T17:28:36.124Z,100300.59
2018-09-11T17:31:05.467Z,100297.83
2018-09-11T17:33:34.723Z,100297.56
2018-09-11T17:36:03.945Z,100292.39
2018-09-11T17:38:33.229Z,100295.95
2018-09-11T17:41:02.418Z,100301.41
2018-09-11T17:43:31.734Z,100299.78
2018-09-11T17:46:00.989Z,100301.69
2018-09-11T17:48:30.319Z,100301.41
2018-09-11T17:50:59.687Z,100298.41
2018-09-11T17:53:29.020Z,100300.33
2018-09-11T17:55:58.297Z,100300.04
2018-09-11T17:58:27.456Z,100305.77
2018-09-11T18:00:56.642Z,100305.47
2018-09-11T18:03:25.876Z,100301.95
2018-09-11T18:05:55.081Z,100306.79
2018-09-11T18:08:24.326Z,100304.59
2018-09-11T18:10:53.610Z,100313.56
2018-09-11T18:13:22.932Z,100314.90
2018-09-11T18:15:52.196Z,100319.79
2018-09-11T18:18:21.412Z,100322.48
2018-09-11T18:20:51.362Z,100317.32
2018-09-11T18:23:20.533Z,100326.56
2018-09-11T18:25:50.485Z,100331.70
2018-09-11T18:28:19.709Z,100335.97
2018-09-11T18:30:48.932Z,100337.83
2018-09-11T18:33:18.148Z,100337.25
2018-09-11T18:35:47.353Z,100344.03
2018-09-11T18:38:16.539Z,100346.13
2018-09-11T18:40:45.749Z,100339.55
2018-09-11T18:43:14.896Z,100344.86
2018-09-11T18:45:44.154Z,100348.27
2018-09-11T18:48:13.343Z,100340.32
2018-09-11T18:50:42.530Z,100339.98
2018-09-11T18:53:11.720Z,100348.08
2018-09-11T18:55:40.933Z,100348.31
2018-09-11T18:58:10.171Z,100352.00
2018-09-11T19:00:39.493Z,100346.22
2018-09-11T19:03:08.694Z,100349.21
2018-09-11T19:05:37.865Z,100347.84
2018-09-11T19:08:07.169Z,100344.05
2018-09-11T19:10:36.352Z,100333.68
2018-09-11T19:13:05.560Z,100341.20
2018-09-11T19:15:34.877Z,100340.62
2018-09-11T19:18:04.108Z,100346.78
2018-09-11T19:20:33.285Z,100338.02
2018-09-11T19:23:02.488Z,100338.72
2018-09-11T19:25:36.177Z,100343.71
2018-09-11T19:28:07.504Z,100343.65
2018-09-11T19:30:36.394Z,100341.86
2018-09-11T19:33:07.987Z,100341.73
2018-09-11T19:35:41.737Z,100340.53
2018-09-11T19:38:17.708Z,100337.95
2018-09-11T19:40:52.109Z,100346.19
2018-09-11T19:43:23.558Z,100344.75
2018-09-11T19:45:52.896Z,100347.45
2018-09-11T19:48:21.512Z,100352.05
2018-09-11T19:50:50.096Z,100354.64
2018-09-11T19:53:37.484Z,100364.62
2018-09-11T19:56:15.951Z,100373.52
2018-09-11T19:58:48.878Z,100370.98
2018-09-11T20:01:30.289Z,100378.53
2018-09-11T20:04:07.181Z,100386.92
2018-09-11T20:06:38.943Z,100381.83
2018-09-11T20:09:11.166Z,100386.53
2018-09-11T20:11:40.016Z,100389.02
2018-09-11T20:14:08.616Z,100382.25
2018-09-11T20:16:37.294Z,100385.05
2018-09-11T20:19:07.266Z,100382.25
2018-09-11T20:21:35.885Z,100379.34
2018-09-11T20:24:04.776Z,100380.73
2018-09-11T20:26:37.109Z,100380.54
2018-09-11T20:29:09.808Z,100377.89
2018-09-11T20:31:38.696Z,100375.59
2018-09-11T20:34:07.348Z,100380.93
2018-09-11T20:36:36.500Z,100383.97
2018-09-11T20:39:08.561Z,100384.00
2018-09-11T20:41:37.380Z,100381.30
2018-09-11T20:44:06.008Z,100382.29
2018-09-11T20:46:34.618Z,100378.52
2018-09-11T20:49:04.210Z,100383.63
2018-09-11T20:51:32.845Z,100383.44
2018-09-11T20:54:01.603Z,100381.56
2018-09-11T20:56:30.392Z,100395.51
2018-09-11T20:58:59.091Z,100398.53
2018-09-11T21:01:27.706Z,100400.28
2018-09-11T21:03:56.808Z,100406.16
2018-09-11T21:06:25.477Z,100394.47
2018-09-11T21:08:54.102Z,100396.44
2018-09-11T21:11:22.737Z,100396.80
2018-09-11T21:13:51.331Z,100402.16
2018-09-11T21:16:19.973Z,100398.47
2018-09-11T21:18:48.643Z,100393.97
2018-09-11T21:21:17.232Z,100395.56
2018-09-11T21:23:45.838Z,100401.61
2018-09-11T21:26:14.497Z,100404.22
2018-09-11T21:28:43.113Z,100410.06
2018-09-11T21:31:11.768Z,100410.36
2018-09-11T21:33:40.365Z,100415.75
2018-09-11T21:36:08.976Z,100411.78
2018-09-11T21:38:37.633Z,100409.62
2018-09-11T21:41:06.553Z,100416.51
2018-09-11T21:43:35.265Z,100423.27
2018-09-11T21:46:03.940Z,100424.63
2018-09-11T21:48:32.732Z,100419.82
2018-09-11T21:51:01.344Z,100428.55
2018-09-11T21:53:29.968Z,100427.83
2018-09-11T21:56:00.788Z,100427.19
2018-09-11T21:58:29.468Z,100421.89
2018-09-11T22:01:02.653Z,100428.75
2018-09-11T22:03:31.422Z,100431.78
2018-09-11T22:06:00.080Z,100428.09
2018-09-11T22:08:28.696Z,100435.71
2018-09-11T22:10:57.301Z,100435.52
2018-09-11T22:13:26.290Z,100430.98
2018-09-11T22:15:55.236Z,100427.98
2018-09-11T22:18:23.843Z,100430.10
2018-09-11T22:20:52.551Z,100433.12
2018-09-11T22:23:21.198Z,100438.36
2018-09-11T22:25:49.860Z,100440.23
2018-09-11T22:28:18.748Z,100443.51
2018-09-11T22:30:47.418Z,100442.69
2018-09-11T22:33:16.013Z,100440.52
2018-09-11T22:35:44.684Z,100445.85
2018-09-11T22:38:13.312Z,100441.01
2018-09-11T22:40:41.977Z,100437.22
2018-09-11T22:43:10.778Z,100441.04
2018-09-11T22:45:39.584Z,100443.28
2018-09-11T22:48:08.224Z,100439.41
2018-09-11T22:50:36.984Z,100438.48
2018-09-11T22:53:05.713Z,100444.11
2018-09-11T22:55:34.362Z,100441.64
2018-09-11T22:58:03.006Z,100440.23
2018-09-11T23:00:31.595Z,100437.97
2018-09-11T23:03:00.716Z,100439.02
2018-09-11T23:05:29.325Z,100441.34
2018-09-11T23:07:57.968Z,100442.30
2018-09-11T23:10:26.579Z,100440.00
2018-09-11T23:12:55.318Z,100439.08
2018-09-11T23:15:24.060Z,100440.66
2018-09-11T23:17:52.632Z,100435.67
2018-09-11T23:20:21.429Z,100438.43
2018-09-11T23:22:50.119Z,100437.02
2018-09-11T23:25:19.236Z,100436.49
2018-09-11T23:27:47.873Z,100437.84
2018-09-11T23:30:16.584Z,100429.59
2018-09-11T23:32:45.184Z,100424.61
2018-09-11T23:35:13.821Z,100423.63
2018-09-11T23:37:42.506Z,100420.11
2018-09-11T23:40:11.212Z,100424.08
2018-09-11T23:42:39.909Z,100426.68
2018-09-11T23:45:08.506Z,100415.25
2018-09-11T23:47:37.116Z,100415.91
2018-09-11T23:50:06.165Z,100416.59
2018-09-11T23:52:35.308Z,100416.89
2018-09-11T23:55:04.259Z,100415.55
2018-09-11T23:57:33.084Z,100410.39
